Flag Pond, Tennessee
Current Conditions -  °F | °C
As of 5:15 AM on Tuesday 27 Jan 2015 (Local Time) from K0A9 Reporting Station
Overcast Overcast  
Wind Chill: 21°   Ceiling: 2200
Heat Index: 27°   Visibility: 10mi
Dew Point: 19°   Wind: 5mph
Humidity: 74%   Direction: 280°W
Pressure: 29.81"   Gusts: NA
Location:  36.02°N, 82.56°W
Report Text: K0A9 271015Z AUTO 28004KT 10SM OVC022 M03/M07 A2981 RMK
Loading
Personal Weather Stations






























Interactive Weather Map New forecast layout! Learn more

10-Day Weather Forecast

Advertisements
Track Severe Weather on mobile